createdAt,value
2017-12-09T00:01:46.196Z,28.50
2017-12-09T00:04:13.714Z,40.80
2017-12-09T00:06:41.232Z,18.80
2017-12-09T00:09:09.522Z,29.85
2017-12-09T00:11:37.048Z,30.98
2017-12-09T00:14:04.534Z,31.00
2017-12-09T00:16:32.809Z,24.77
2017-12-09T00:19:01.086Z,20.92
2017-12-09T00:21:29.360Z,33.72
2017-12-09T00:23:57.636Z,26.20
2017-12-09T00:28:58.820Z,37.88
2017-12-09T00:31:26.339Z,28.30
2017-12-09T00:33:53.836Z,40.15
2017-12-09T00:36:21.328Z,26.60
2017-12-09T00:38:48.947Z,38.25
2017-12-09T00:41:16.439Z,25.92
2017-12-09T00:43:43.917Z,28.02
2017-12-09T00:46:11.443Z,24.87
2017-12-09T00:48:38.930Z,32.70
2017-12-09T00:51:06.432Z,24.27
2017-12-09T00:53:33.937Z,26.77
2017-12-09T00:56:01.439Z,22.98
2017-12-09T00:58:29.693Z,25.35
2017-12-09T01:00:57.297Z,32.90
2017-12-09T01:03:24.790Z,26.90
2017-12-09T01:05:52.294Z,15.13
2017-12-09T01:08:19.793Z,15.50
2017-12-09T01:10:47.277Z,21.98
2017-12-09T01:13:14.799Z,26.60
2017-12-09T01:15:54.367Z,32.75
2017-12-09T01:18:33.862Z,28.20
2017-12-09T01:21:01.374Z,24.27
2017-12-09T01:23:28.981Z,37.55
2017-12-09T01:25:56.511Z,30.40
2017-12-09T01:28:24.769Z,35.38
2017-12-09T01:30:52.258Z,31.95
2017-12-09T01:33:20.529Z,30.52
2017-12-09T01:35:48.791Z,36.80
2017-12-09T01:38:16.273Z,34.17
2017-12-09T01:40:43.840Z,32.55
2017-12-09T01:43:11.340Z,36.10
2017-12-09T01:45:38.830Z,32.10
2017-12-09T01:48:07.130Z,34.95
2017-12-09T01:50:34.626Z,30.98
2017-12-09T01:53:02.257Z,39.45
2017-12-09T01:55:29.755Z,40.47
2017-12-09T01:57:57.268Z,36.03
2017-12-09T02:00:24.817Z,39.45
2017-12-09T02:02:52.297Z,29.80
2017-12-09T02:05:19.866Z,36.90
2017-12-09T02:07:47.386Z,51.00
2017-12-09T02:10:15.668Z,40.00
2017-12-09T02:12:43.158Z,38.00
2017-12-09T02:15:10.705Z,37.22
2017-12-09T02:17:38.198Z,43.58
2017-12-09T02:20:05.701Z,31.35
2017-12-09T02:22:33.213Z,43.28
2017-12-09T02:25:00.711Z,28.55
2017-12-09T02:27:28.968Z,37.30
2017-12-09T02:29:56.540Z,29.40
2017-12-09T02:32:24.790Z,32.65
2017-12-09T02:34:52.302Z,28.52
2017-12-09T02:37:19.877Z,38.50
2017-12-09T02:39:47.380Z,42.70
2017-12-09T02:42:15.647Z,44.72
2017-12-09T02:44:43.158Z,36.45
2017-12-09T02:47:10.704Z,25.95
2017-12-09T02:49:38.238Z,38.35
2017-12-09T02:52:06.521Z,30.23
2017-12-09T02:54:34.770Z,36.60
2017-12-09T02:57:02.282Z,34.88
2017-12-09T02:59:29.813Z,32.63
2017-12-09T03:01:58.070Z,30.17
2017-12-09T03:04:25.553Z,48.47
2017-12-09T03:06:53.083Z,29.70
2017-12-09T03:09:20.574Z,28.98
2017-12-09T03:11:48.066Z,33.53
2017-12-09T03:14:15.585Z,40.50
2017-12-09T03:16:43.065Z,33.20
2017-12-09T03:19:10.555Z,32.38
2017-12-09T03:21:38.070Z,41.35
2017-12-09T03:24:05.576Z,21.90
2017-12-09T03:26:33.088Z,35.10
2017-12-09T03:29:00.601Z,37.90
2017-12-09T03:31:28.094Z,43.13
2017-12-09T03:33:55.590Z,39.13
2017-12-09T03:36:23.104Z,42.55
2017-12-09T03:38:50.594Z,28.55
2017-12-09T03:41:18.094Z,29.45
2017-12-09T03:43:45.604Z,43.22
2017-12-09T03:46:13.086Z,31.20
2017-12-09T03:48:40.588Z,18.85
2017-12-09T03:51:08.879Z,26.85
2017-12-09T03:53:36.440Z,29.20
2017-12-09T03:56:03.925Z,35.42
2017-12-09T03:58:31.448Z,29.37
2017-12-09T04:00:58.957Z,29.67
2017-12-09T04:03:26.448Z,23.23
2017-12-09T04:05:54.777Z,26.90
2017-12-09T04:08:22.286Z,26.73
2017-12-09T04:10:50.552Z,29.35
2017-12-09T04:13:18.833Z,29.20
2017-12-09T04:15:47.084Z,38.75
2017-12-09T04:18:14.631Z,33.10
2017-12-09T04:20:42.130Z,29.77
2017-12-09T04:23:10.404Z,18.23
2017-12-09T04:25:38.650Z,25.00
2017-12-09T04:28:06.931Z,22.00
2017-12-09T04:30:34.411Z,20.02
2017-12-09T04:33:02.688Z,17.87
2017-12-09T04:35:30.980Z,15.70
2017-12-09T04:37:58.555Z,22.52
2017-12-09T04:40:26.037Z,12.37
2017-12-09T04:42:53.546Z,19.10
2017-12-09T04:45:21.115Z,17.23
2017-12-09T04:47:48.602Z,15.15
2017-12-09T04:50:16.126Z,14.23
2017-12-09T04:52:43.623Z,22.75
2017-12-09T04:55:11.133Z,16.90
2017-12-09T04:57:39.428Z,14.57
2017-12-09T05:00:06.992Z,14.13
2017-12-09T05:02:34.472Z,15.23
2017-12-09T05:05:01.995Z,12.68
2017-12-09T05:07:29.492Z,16.90
2017-12-09T05:09:56.991Z,19.40
2017-12-09T05:12:25.378Z,29.15
2017-12-09T05:14:53.641Z,15.43
2017-12-09T05:17:21.912Z,18.27
2017-12-09T05:19:49.413Z,23.15
2017-12-09T05:22:16.907Z,9.82
2017-12-09T05:24:44.414Z,15.27
2017-12-09T05:27:11.931Z,13.15
2017-12-09T05:29:39.418Z,13.35
2017-12-09T05:32:07.698Z,13.02
2017-12-09T05:34:35.978Z,23.85
2017-12-09T05:37:03.462Z,17.87
2017-12-09T05:39:30.990Z,9.38
2017-12-09T05:41:59.257Z,10.65
2017-12-09T05:44:27.548Z,13.48
2017-12-09T05:46:55.097Z,15.35
2017-12-09T05:49:23.370Z,13.40
2017-12-09T05:51:51.632Z,14.07
2017-12-09T05:54:19.131Z,15.73
2017-12-09T05:56:46.665Z,25.83
2017-12-09T05:59:15.065Z,23.80
2017-12-09T06:01:42.563Z,12.25
2017-12-09T06:04:10.065Z,12.98
2017-12-09T06:06:37.617Z,17.00
2017-12-09T06:09:05.879Z,19.52
2017-12-09T06:11:33.385Z,22.52
2017-12-09T06:14:00.870Z,12.63
2017-12-09T06:16:28.367Z,11.70
2017-12-09T06:18:55.898Z,22.37
2017-12-09T06:21:23.400Z,18.12
2017-12-09T06:23:50.941Z,27.00
2017-12-09T06:26:19.317Z,13.48
2017-12-09T06:28:47.571Z,14.63
2017-12-09T06:31:15.063Z,21.48
2017-12-09T06:33:42.583Z,22.90
2017-12-09T06:36:10.084Z,20.20
2017-12-09T06:38:37.597Z,26.35
2017-12-09T06:41:06.632Z,10.10
2017-12-09T06:43:34.109Z,16.37
2017-12-09T06:46:01.599Z,17.15
2017-12-09T06:48:29.106Z,23.05
2017-12-09T06:50:56.612Z,19.98
2017-12-09T06:53:24.105Z,13.60
2017-12-09T06:55:52.381Z,12.18
2017-12-09T06:58:20.646Z,12.15
2017-12-09T07:00:48.905Z,19.58
2017-12-09T07:03:16.425Z,10.05
2017-12-09T07:05:43.918Z,23.90
2017-12-09T07:08:11.424Z,12.27
2017-12-09T07:10:38.929Z,18.40
2017-12-09T07:13:06.419Z,29.35
2017-12-09T07:15:34.665Z,14.32
2017-12-09T07:18:02.180Z,15.68
2017-12-09T07:20:29.689Z,18.80
2017-12-09T07:22:57.174Z,22.50
2017-12-09T07:25:25.450Z,23.80
2017-12-09T07:27:53.706Z,18.45
2017-12-09T07:30:21.228Z,35.75
2017-12-09T07:32:48.723Z,31.85
2017-12-09T07:35:16.251Z,23.30
2017-12-09T07:37:43.779Z,25.98
2017-12-09T07:40:11.294Z,27.87
2017-12-09T07:42:38.808Z,44.15
2017-12-09T07:45:06.302Z,34.03
2017-12-09T07:47:33.823Z,26.35
2017-12-09T07:50:01.309Z,44.35
2017-12-09T07:52:28.828Z,32.85
2017-12-09T07:54:56.317Z,23.65
2017-12-09T07:57:23.822Z,30.02
2017-12-09T07:59:52.073Z,25.30
2017-12-09T08:02:19.600Z,28.05
2017-12-09T08:04:47.111Z,22.95
2017-12-09T08:07:15.380Z,16.75
2017-12-09T08:09:43.654Z,31.27
2017-12-09T08:12:11.162Z,15.65
2017-12-09T08:14:38.677Z,24.52
2017-12-09T08:17:06.961Z,17.23
2017-12-09T08:19:35.243Z,24.15
2017-12-09T08:22:02.750Z,15.80
2017-12-09T08:24:30.233Z,17.87
2017-12-09T08:26:57.734Z,19.58
2017-12-09T08:29:25.288Z,20.37
2017-12-09T08:31:52.803Z,27.27
2017-12-09T08:34:20.302Z,20.67
2017-12-09T08:36:47.856Z,25.70
2017-12-09T08:39:15.538Z,32.50
2017-12-09T08:41:43.021Z,24.25
2017-12-09T08:44:10.532Z,24.12
2017-12-09T08:46:38.019Z,21.65
2017-12-09T08:49:05.545Z,24.65
2017-12-09T08:51:33.801Z,21.62
2017-12-09T08:54:01.349Z,15.70
2017-12-09T08:56:28.847Z,29.02
2017-12-09T08:58:56.406Z,17.90
2017-12-09T09:01:23.967Z,25.92
2017-12-09T09:03:51.484Z,23.95
2017-12-09T09:06:19.004Z,35.78
2017-12-09T09:08:46.515Z,24.67
2017-12-09T09:11:14.789Z,28.15
2017-12-09T09:13:42.278Z,32.55
2017-12-09T09:16:09.771Z,33.80
2017-12-09T09:18:37.383Z,23.73
2017-12-09T09:21:04.887Z,26.55
2017-12-09T09:23:32.369Z,27.08
2017-12-09T09:25:59.878Z,19.92
2017-12-09T09:28:27.379Z,26.37
2017-12-09T09:30:54.876Z,13.52
2017-12-09T09:33:22.396Z,17.60
2017-12-09T09:35:49.887Z,15.73
2017-12-09T09:38:18.169Z,25.17
2017-12-09T09:40:45.676Z,25.73
2017-12-09T09:43:14.067Z,25.23
2017-12-09T09:45:41.574Z,26.95
2017-12-09T09:48:09.061Z,21.60
2017-12-09T09:50:36.569Z,27.37
2017-12-09T09:53:04.831Z,19.95
2017-12-09T09:55:32.401Z,21.27
2017-12-09T09:58:00.666Z,14.85
2017-12-09T10:00:28.931Z,19.37
2017-12-09T10:02:57.310Z,15.15
2017-12-09T10:05:24.774Z,14.40
2017-12-09T10:07:53.029Z,26.27
2017-12-09T10:10:20.530Z,17.00
2017-12-09T10:12:48.038Z,21.92
2017-12-09T10:15:15.544Z,16.50
2017-12-09T10:17:43.806Z,18.83
2017-12-09T10:20:12.083Z,20.25
2017-12-09T10:22:40.360Z,20.52
2017-12-09T10:25:08.633Z,16.70
2017-12-09T10:27:36.942Z,21.73
2017-12-09T10:30:04.430Z,21.75
2017-12-09T10:32:32.064Z,21.62
2017-12-09T10:34:59.572Z,19.33
2017-12-09T10:37:27.060Z,17.17
2017-12-09T10:39:55.357Z,20.85
2017-12-09T10:42:22.846Z,18.60
2017-12-09T10:44:50.352Z,21.87
2017-12-09T10:47:17.858Z,19.50
2017-12-09T10:49:45.345Z,17.27
2017-12-09T10:52:12.861Z,18.90
2017-12-09T10:54:40.344Z,19.27
2017-12-09T10:57:07.848Z,21.80
2017-12-09T10:59:35.372Z,22.10
2017-12-09T11:02:02.876Z,21.00
2017-12-09T11:04:30.399Z,20.23
2017-12-09T11:06:58.664Z,17.87
2017-12-09T11:09:26.183Z,18.55
2017-12-09T11:11:53.708Z,19.42
2017-12-09T11:14:21.228Z,20.27
2017-12-09T11:16:48.746Z,22.58
2017-12-09T11:19:16.278Z,21.52
2017-12-09T11:21:43.855Z,18.67
2017-12-09T11:24:11.398Z,16.65
2017-12-09T11:26:39.700Z,33.05
2017-12-09T11:29:07.207Z,29.30
2017-12-09T11:31:34.708Z,21.37
2017-12-09T11:34:02.223Z,23.10
2017-12-09T11:36:29.705Z,30.30
2017-12-09T11:38:57.982Z,22.65
2017-12-09T11:41:26.259Z,23.85
2017-12-09T11:43:54.509Z,26.95
2017-12-09T11:46:22.045Z,21.15
2017-12-09T11:48:49.529Z,29.75
2017-12-09T11:51:17.023Z,24.48
2017-12-09T11:53:44.534Z,29.30
2017-12-09T11:56:12.017Z,27.52
2017-12-09T11:58:40.300Z,31.73
2017-12-09T12:01:07.883Z,27.77
2017-12-09T12:03:35.378Z,31.85
2017-12-09T12:06:02.891Z,31.80
2017-12-09T12:08:30.386Z,31.00
2017-12-09T12:10:57.909Z,33.60
2017-12-09T12:13:25.432Z,42.13
2017-12-09T12:15:53.695Z,31.90
2017-12-09T12:18:21.203Z,39.30
2017-12-09T12:20:48.711Z,31.15
2017-12-09T12:23:16.228Z,32.47
2017-12-09T12:25:43.719Z,27.62
2017-12-09T12:28:11.344Z,41.30
2017-12-09T12:30:38.846Z,45.00
2017-12-09T12:33:07.837Z,37.47
2017-12-09T12:35:35.360Z,42.85
2017-12-09T12:38:02.872Z,43.85
2017-12-09T12:40:31.144Z,36.83
2017-12-09T12:42:58.658Z,34.05
2017-12-09T12:45:26.141Z,38.65
2017-12-09T12:47:53.648Z,32.42
2017-12-09T12:50:21.163Z,33.60
2017-12-09T12:52:48.653Z,31.15
2017-12-09T12:55:16.181Z,28.60
2017-12-09T12:57:43.783Z,27.17
2017-12-09T13:00:11.338Z,30.33
2017-12-09T13:02:38.851Z,26.98
2017-12-09T13:05:06.369Z,32.92
2017-12-09T13:07:33.865Z,30.92
2017-12-09T13:10:01.380Z,29.25
2017-12-09T13:12:28.886Z,27.27
2017-12-09T13:14:56.377Z,34.15
2017-12-09T13:17:24.647Z,42.30
2017-12-09T13:19:52.920Z,31.02
2017-12-09T13:22:20.546Z,32.45
2017-12-09T13:24:48.041Z,33.97
2017-12-09T13:27:15.563Z,29.73
2017-12-09T13:29:43.053Z,31.33
2017-12-09T13:32:10.542Z,34.85
2017-12-09T13:34:38.811Z,33.20
2017-12-09T13:37:07.084Z,27.92
2017-12-09T13:39:35.365Z,30.12
2017-12-09T13:42:03.654Z,31.37
2017-12-09T13:44:31.175Z,33.08
2017-12-09T13:47:00.204Z,29.50
2017-12-09T13:49:27.703Z,40.10
2017-12-09T13:51:55.185Z,30.90
2017-12-09T13:54:22.725Z,32.78
2017-12-09T13:56:50.224Z,33.42
2017-12-09T13:59:18.471Z,36.60
2017-12-09T14:01:45.978Z,30.25
2017-12-09T14:04:13.466Z,35.10
2017-12-09T14:06:40.963Z,31.90
2017-12-09T14:09:08.483Z,38.65
2017-12-09T14:11:35.993Z,26.77
2017-12-09T14:14:03.537Z,33.33
2017-12-09T14:16:31.085Z,36.10
2017-12-09T14:18:58.590Z,35.25
2017-12-09T14:21:26.122Z,35.58
2017-12-09T14:23:54.433Z,31.62
2017-12-09T14:26:21.964Z,36.17
2017-12-09T14:28:50.238Z,31.77
2017-12-09T14:31:18.638Z,27.25
2017-12-09T14:33:46.165Z,32.97
2017-12-09T14:36:13.679Z,28.00
2017-12-09T14:38:41.194Z,39.50
2017-12-09T14:41:09.447Z,27.10
2017-12-09T14:43:36.983Z,27.92
2017-12-09T14:46:04.484Z,27.17
2017-12-09T14:48:32.008Z,30.48
2017-12-09T14:50:59.531Z,28.50
2017-12-09T14:53:27.052Z,22.50
2017-12-09T14:55:54.552Z,22.85
2017-12-09T14:58:22.127Z,31.10
2017-12-09T15:00:49.620Z,31.40
2017-12-09T15:03:17.198Z,27.83
2017-12-09T15:05:45.468Z,40.03
2017-12-09T15:08:12.950Z,17.77
2017-12-09T15:10:40.461Z,28.77
2017-12-09T15:13:07.969Z,27.77
2017-12-09T15:15:35.476Z,33.83
2017-12-09T15:18:02.991Z,37.55
2017-12-09T15:20:30.474Z,30.52
2017-12-09T15:22:57.977Z,35.10
2017-12-09T15:25:26.250Z,34.13
2017-12-09T15:27:54.528Z,28.67
2017-12-09T15:30:22.783Z,23.73
2017-12-09T15:32:50.303Z,33.22
2017-12-09T15:35:17.804Z,27.17
2017-12-09T15:37:45.303Z,32.47
2017-12-09T15:40:12.822Z,41.42
2017-12-09T15:42:40.320Z,26.17
2017-12-09T15:45:07.811Z,33.03
2017-12-09T15:47:35.336Z,35.55
2017-12-09T15:50:02.853Z,32.15
2017-12-09T15:52:30.342Z,33.15
2017-12-09T15:54:57.855Z,27.48
2017-12-09T15:57:25.362Z,31.83
2017-12-09T15:59:52.891Z,34.00
2017-12-09T16:02:20.397Z,31.40
2017-12-09T16:04:47.908Z,35.47
2017-12-09T16:07:15.432Z,21.62
2017-12-09T16:09:42.922Z,38.40
2017-12-09T16:12:10.429Z,27.27
2017-12-09T16:14:37.974Z,28.12
2017-12-09T16:17:05.484Z,28.58
2017-12-09T16:19:32.986Z,20.58
2017-12-09T16:22:00.503Z,24.87
2017-12-09T16:24:28.008Z,18.80
2017-12-09T16:26:55.517Z,25.02
2017-12-09T16:29:23.027Z,26.85
2017-12-09T16:31:50.548Z,20.62
2017-12-09T16:34:18.033Z,24.10
2017-12-09T16:36:45.540Z,20.92
2017-12-09T16:39:13.063Z,17.92
2017-12-09T16:41:40.545Z,19.35
2017-12-09T16:44:08.047Z,29.73
2017-12-09T16:46:35.572Z,21.17
2017-12-09T16:49:03.085Z,27.98
2017-12-09T16:51:30.588Z,33.92
2017-12-09T16:53:58.124Z,35.75
2017-12-09T16:56:25.614Z,22.30
2017-12-09T16:58:53.112Z,19.15
2017-12-09T17:01:21.999Z,21.40
2017-12-09T17:03:50.272Z,20.00
2017-12-09T17:06:18.530Z,20.58
2017-12-09T17:08:46.042Z,35.67
2017-12-09T17:11:13.540Z,39.80
2017-12-09T17:13:42.554Z,26.62
2017-12-09T17:16:10.085Z,32.58
2017-12-09T17:18:37.587Z,45.45
2017-12-09T17:21:05.156Z,42.47
2017-12-09T17:23:32.675Z,35.75
2017-12-09T17:26:00.948Z,45.08
2017-12-09T17:28:28.527Z,33.70
2017-12-09T17:30:56.841Z,33.95
2017-12-09T17:33:24.341Z,63.92
2017-12-09T17:35:51.960Z,35.40
2017-12-09T17:38:19.440Z,46.28
2017-12-09T17:40:46.959Z,38.95
2017-12-09T17:43:14.476Z,39.03
2017-12-09T17:45:41.991Z,44.83
2017-12-09T17:48:09.505Z,42.80
2017-12-09T17:50:36.999Z,27.48
2017-12-09T17:53:04.504Z,38.53
2017-12-09T17:55:32.040Z,27.83
2017-12-09T17:57:59.544Z,34.65
2017-12-09T18:00:27.846Z,20.27
2017-12-09T18:02:55.338Z,32.08
2017-12-09T18:05:22.855Z,19.90
2017-12-09T18:07:50.361Z,27.50
2017-12-09T18:10:17.863Z,19.67
2017-12-09T18:12:46.134Z,31.37
2017-12-09T18:15:14.436Z,33.13
2017-12-09T18:17:42.001Z,17.45
2017-12-09T18:20:09.515Z,29.40
2017-12-09T18:22:37.015Z,32.58
2017-12-09T18:25:04.537Z,28.85
2017-12-09T18:27:32.790Z,19.35
2017-12-09T18:30:00.317Z,23.73
2017-12-09T18:32:27.820Z,23.45
2017-12-09T18:34:55.301Z,30.73
2017-12-09T18:37:23.561Z,18.30
2017-12-09T18:39:51.833Z,20.62
2017-12-09T18:42:20.101Z,22.85
2017-12-09T18:44:47.629Z,17.92
2017-12-09T18:47:15.143Z,24.15
2017-12-09T18:49:43.420Z,23.40
2017-12-09T18:52:11.669Z,20.62
2017-12-09T18:54:39.170Z,21.00
2017-12-09T18:57:06.668Z,14.25
2017-12-09T18:59:34.162Z,22.67
2017-12-09T19:02:02.474Z,15.27
2017-12-09T19:04:29.964Z,20.27
2017-12-09T19:06:57.466Z,14.07
2017-12-09T19:09:25.751Z,24.02
2017-12-09T19:11:53.254Z,22.33
2017-12-09T19:14:20.753Z,33.28
2017-12-09T19:16:49.043Z,32.72
2017-12-09T19:19:16.590Z,25.33
2017-12-09T19:21:44.846Z,24.58
2017-12-09T19:24:12.407Z,14.65
2017-12-09T19:26:39.889Z,16.25
2017-12-09T19:29:07.775Z,29.65
2017-12-09T19:31:35.320Z,20.23
2017-12-09T19:34:02.830Z,24.75
2017-12-09T19:36:30.331Z,19.55
2017-12-09T19:38:57.904Z,17.87
2017-12-09T19:41:25.394Z,21.42
2017-12-09T19:43:52.894Z,21.70
2017-12-09T19:46:21.184Z,25.75
2017-12-09T19:48:48.665Z,18.25
2017-12-09T19:51:16.271Z,21.33
2017-12-09T19:53:43.785Z,20.33
2017-12-09T19:56:11.275Z,19.95
2017-12-09T19:58:38.762Z,23.87
2017-12-09T20:01:07.171Z,19.77
2017-12-09T20:03:34.649Z,14.52
2017-12-09T20:06:02.146Z,26.15
2017-12-09T20:08:30.422Z,20.85
2017-12-09T20:10:57.921Z,15.30
2017-12-09T20:13:25.429Z,20.08
2017-12-09T20:15:52.957Z,24.20
2017-12-09T20:18:20.451Z,16.75
2017-12-09T20:20:47.962Z,20.65
2017-12-09T20:23:15.446Z,17.87
2017-12-09T20:25:42.976Z,25.52
2017-12-09T20:28:10.473Z,17.85
2017-12-09T20:30:37.957Z,19.23
2017-12-09T20:33:06.239Z,15.55
2017-12-09T20:35:34.494Z,20.55
2017-12-09T20:38:02.763Z,25.92
2017-12-09T20:40:30.365Z,19.55
2017-12-09T20:42:57.859Z,15.77
2017-12-09T20:45:25.375Z,14.50
2017-12-09T20:47:52.892Z,26.75
2017-12-09T20:50:20.378Z,18.73
2017-12-09T20:52:48.650Z,25.02
2017-12-09T20:55:16.967Z,24.40
2017-12-09T20:57:44.465Z,15.90
2017-12-09T21:00:12.074Z,13.00
2017-12-09T21:02:39.586Z,18.02
2017-12-09T21:05:07.197Z,29.02
2017-12-09T21:07:34.696Z,30.42
2017-12-09T21:10:02.193Z,14.00
2017-12-09T21:12:29.746Z,14.90
2017-12-09T21:14:58.037Z,13.93
2017-12-09T21:17:25.537Z,11.80
2017-12-09T21:19:53.039Z,10.68
2017-12-09T21:22:21.315Z,16.92
2017-12-09T21:24:48.840Z,16.08
2017-12-09T21:27:16.345Z,9.43
2017-12-09T21:29:43.830Z,16.12
2017-12-09T21:32:11.331Z,20.77
2017-12-09T21:34:39.615Z,21.60
2017-12-09T21:37:07.908Z,31.67
2017-12-09T21:39:35.401Z,18.70
2017-12-09T21:42:02.928Z,17.60
2017-12-09T21:44:30.414Z,18.70
2017-12-09T21:46:57.938Z,17.25
2017-12-09T21:49:25.417Z,15.75
2017-12-09T21:51:52.932Z,14.13
2017-12-09T21:54:21.197Z,14.38
2017-12-09T21:56:48.800Z,17.65
2017-12-09T21:59:16.318Z,14.82
2017-12-09T22:01:44.621Z,14.75
2017-12-09T22:04:12.867Z,15.27
2017-12-09T22:06:40.381Z,11.15
2017-12-09T22:09:07.896Z,14.07
2017-12-09T22:11:35.405Z,19.42
2017-12-09T22:14:02.904Z,23.10
2017-12-09T22:16:30.409Z,16.85
2017-12-09T22:18:57.910Z,8.95
2017-12-09T22:21:25.428Z,14.48
2017-12-09T22:23:52.979Z,15.60
2017-12-09T22:26:20.467Z,13.30
2017-12-09T22:28:47.974Z,15.00
2017-12-09T22:31:16.256Z,11.07
2017-12-09T22:33:44.503Z,13.05
2017-12-09T22:36:13.518Z,13.15
2017-12-09T22:38:41.770Z,12.68
2017-12-09T22:41:10.062Z,10.50
2017-12-09T22:43:37.570Z,12.20
2017-12-09T22:46:05.077Z,11.35
2017-12-09T22:48:32.565Z,8.18
2017-12-09T22:51:00.065Z,11.68
2017-12-09T22:53:27.579Z,9.10
2017-12-09T22:55:55.094Z,11.40
2017-12-09T22:58:22.581Z,20.17
2017-12-09T23:00:50.918Z,18.60
2017-12-09T23:03:18.387Z,14.30
2017-12-09T23:05:46.640Z,18.27
2017-12-09T23:08:14.174Z,17.58
2017-12-09T23:10:41.658Z,17.08
2017-12-09T23:13:09.145Z,10.68
2017-12-09T23:15:36.642Z,11.18
2017-12-09T23:18:04.189Z,17.30
2017-12-09T23:20:32.477Z,9.40
2017-12-09T23:23:00.082Z,9.77
2017-12-09T23:25:27.569Z,8.13
2017-12-09T23:27:55.069Z,11.95
2017-12-09T23:30:22.557Z,8.13
2017-12-09T23:32:50.073Z,8.80
2017-12-09T23:35:17.562Z,12.68
2017-12-09T23:37:45.049Z,12.52
2017-12-09T23:40:12.549Z,8.55
2017-12-09T23:42:40.031Z,7.22
2017-12-09T23:45:07.528Z,17.05
2017-12-09T23:47:35.118Z,12.43
2017-12-09T23:50:02.630Z,14.18
2017-12-09T23:52:30.110Z,11.60
2017-12-09T23:54:57.613Z,15.35
2017-12-09T23:57:25.089Z,9.07
2017-12-09T23:59:52.585Z,13.43
